createdAt,value
2019-05-13T00:01:34.546Z,101422.77
2019-05-13T00:04:03.902Z,101420.72
2019-05-13T00:06:34.362Z,101415.80
2019-05-13T00:09:06.563Z,101420.45
2019-05-13T00:11:35.733Z,101419.19
2019-05-13T00:14:04.875Z,101411.26
2019-05-13T00:16:34.309Z,101413.56
2019-05-13T00:19:04.174Z,101410.32
2019-05-13T00:21:34.021Z,101410.14
2019-05-13T00:24:04.170Z,101406.17
2019-05-13T00:26:33.895Z,101404.81
2019-05-13T00:29:04.196Z,101402.05
2019-05-13T00:31:33.655Z,101399.66
2019-05-13T00:34:03.717Z,101400.13
2019-05-13T00:36:33.728Z,101398.61
2019-05-13T00:39:04.001Z,101411.45
2019-05-13T00:41:33.831Z,101408.00
2019-05-13T00:44:03.801Z,101413.14
2019-05-13T00:46:34.011Z,101419.12
2019-05-13T00:49:04.761Z,101416.54
2019-05-13T00:51:34.221Z,101414.30
2019-05-13T00:54:04.340Z,101423.28
2019-05-13T00:56:34.496Z,101413.66
2019-05-13T00:59:04.128Z,101413.34
2019-05-13T01:01:33.621Z,101410.30
2019-05-13T01:04:04.029Z,101409.36
2019-05-13T01:06:34.073Z,101411.58
2019-05-13T01:09:05.385Z,101409.06
2019-05-13T01:11:34.729Z,101407.83
2019-05-13T01:14:04.380Z,101406.98
2019-05-13T01:16:34.132Z,101407.86
2019-05-13T01:19:04.180Z,101402.78
2019-05-13T01:21:34.508Z,101403.25
2019-05-13T01:24:04.009Z,101400.73
2019-05-13T01:26:33.771Z,101410.94
2019-05-13T01:29:04.130Z,101404.92
2019-05-13T01:31:34.352Z,101408.81
2019-05-13T01:34:04.175Z,101412.86
2019-05-13T01:36:34.258Z,101415.12
2019-05-13T01:39:05.644Z,101409.70
2019-05-13T01:41:35.342Z,101401.19
2019-05-13T01:44:05.020Z,101403.78
2019-05-13T01:46:34.795Z,101403.61
2019-05-13T01:49:05.055Z,101407.68
2019-05-13T01:51:34.330Z,101406.08
2019-05-13T01:54:04.188Z,101411.16
2019-05-13T01:56:34.027Z,101406.06
2019-05-13T01:59:03.785Z,101407.86
2019-05-13T02:01:33.704Z,101409.95
2019-05-13T02:04:03.987Z,101409.48
2019-05-13T02:06:33.848Z,101416.36
2019-05-13T02:09:04.878Z,101424.66
2019-05-13T02:11:34.231Z,101425.61
2019-05-13T02:14:05.694Z,101428.59
2019-05-13T02:16:34.555Z,101430.91
2019-05-13T02:19:04.050Z,101434.80
2019-05-13T02:21:33.727Z,101430.93
2019-05-13T02:24:04.360Z,101430.64
2019-05-13T02:26:34.509Z,101427.58
2019-05-13T02:29:03.958Z,101425.86
2019-05-13T02:31:45.247Z,101437.42
2019-05-13T02:34:03.910Z,101436.65
2019-05-13T02:36:33.323Z,101435.65
2019-05-13T02:39:03.669Z,101438.66
2019-05-13T02:41:34.124Z,101431.88
2019-05-13T02:44:03.938Z,101437.25
2019-05-13T02:46:34.072Z,101438.20
2019-05-13T02:49:03.565Z,101435.28
2019-05-13T02:51:32.999Z,101432.89
2019-05-13T02:54:03.501Z,101431.67
2019-05-13T02:56:33.238Z,101428.68
2019-05-13T02:59:04.053Z,101427.08
2019-05-13T03:01:33.556Z,101435.48
2019-05-13T03:04:03.249Z,101438.36
2019-05-13T03:06:33.458Z,101437.34
2019-05-13T03:09:03.922Z,101441.98
2019-05-13T03:11:33.395Z,101445.84
2019-05-13T03:14:03.609Z,101451.38
2019-05-13T03:16:55.158Z,101451.73
2019-05-13T03:19:24.337Z,101450.42
2019-05-13T03:21:53.876Z,101452.98
2019-05-13T03:24:23.277Z,101457.73
2019-05-13T03:26:53.475Z,101452.02
2019-05-13T03:29:22.726Z,101452.18
2019-05-13T03:31:55.950Z,101456.04
2019-05-13T03:34:26.455Z,101459.95
2019-05-13T03:36:56.840Z,101460.40
2019-05-13T03:39:26.953Z,101463.33
2019-05-13T03:41:58.682Z,101465.47
2019-05-13T03:44:32.469Z,101466.25
2019-05-13T03:47:04.306Z,101464.24
2019-05-13T03:49:35.613Z,101467.95
2019-05-13T03:52:05.096Z,101465.53
2019-05-13T03:54:34.657Z,101471.55
2019-05-13T03:57:04.240Z,101472.26
2019-05-13T03:59:33.841Z,101471.09
2019-05-13T04:02:03.515Z,101480.59
2019-05-13T04:04:32.816Z,101476.30
2019-05-13T04:07:02.873Z,101483.25
2019-05-13T04:09:36.015Z,101477.53
2019-05-13T04:12:03.619Z,101483.34
2019-05-13T04:14:33.774Z,101488.48
2019-05-13T04:17:03.514Z,101488.91
2019-05-13T04:19:34.076Z,101484.48
2019-05-13T04:22:03.683Z,101482.25
2019-05-13T04:24:33.795Z,101487.66
2019-05-13T04:27:03.437Z,101479.88
2019-05-13T04:29:33.516Z,101473.87
2019-05-13T04:32:03.027Z,101480.73
2019-05-13T04:34:33.672Z,101485.96
2019-05-13T04:37:03.568Z,101494.89
2019-05-13T04:39:45.822Z,101499.16
2019-05-13T04:42:03.704Z,101499.98
2019-05-13T04:44:32.947Z,101502.41
2019-05-13T04:47:03.663Z,101504.01
2019-05-13T04:49:33.320Z,101509.52
2019-05-13T04:52:03.621Z,101511.45
2019-05-13T04:54:33.932Z,101514.94
2019-05-13T04:57:03.522Z,101517.38
2019-05-13T04:59:37.439Z,101517.53
2019-05-13T05:02:29.942Z,101521.15
2019-05-13T05:05:12.975Z,101523.91
2019-05-13T05:08:04.207Z,101530.64
2019-05-13T05:11:02.203Z,101532.11
2019-05-13T05:14:02.493Z,101518.17
2019-05-13T05:17:03.237Z,101515.50
2019-05-13T05:20:08.215Z,101521.29
2019-05-13T05:23:14.099Z,101506.69
2019-05-13T05:26:13.568Z,101495.80
2019-05-13T05:29:32.667Z,101488.63
2019-05-13T05:32:28.774Z,101489.39
2019-05-13T05:35:32.408Z,101487.44
2019-05-13T05:38:31.782Z,101490.07
2019-05-13T05:41:03.353Z,101490.71
2019-05-13T05:43:33.660Z,101496.73
2019-05-13T05:46:04.081Z,101497.02
2019-05-13T05:48:34.872Z,101493.86
2019-05-13T05:51:05.426Z,101503.81
2019-05-13T05:53:37.701Z,101508.41
2019-05-13T05:56:07.635Z,101502.54
2019-05-13T05:58:37.695Z,101508.95
2019-05-13T06:01:08.471Z,101504.89
2019-05-13T06:03:38.813Z,101518.53
2019-05-13T06:06:08.346Z,101516.84
2019-05-13T06:08:37.597Z,101516.52
2019-05-13T06:11:06.746Z,101511.59
2019-05-13T06:13:38.953Z,101519.12
2019-05-13T06:16:08.209Z,101514.75
2019-05-13T06:18:37.435Z,101513.27
2019-05-13T06:21:06.880Z,101511.00
2019-05-13T06:23:36.112Z,101510.65
2019-05-13T06:26:05.408Z,101511.89
2019-05-13T06:28:36.956Z,101520.84
2019-05-13T06:31:07.299Z,101516.27
2019-05-13T06:33:36.499Z,101516.07
2019-05-13T06:36:05.653Z,101516.52
2019-05-13T06:38:35.180Z,101519.06
2019-05-13T06:41:08.046Z,101507.73
2019-05-13T06:43:35.239Z,101504.53
2019-05-13T06:46:04.349Z,101519.55
2019-05-13T06:48:33.568Z,101517.59
2019-05-13T06:51:03.035Z,101512.94
2019-05-13T06:53:32.643Z,101508.20
2019-05-13T06:56:01.784Z,101508.93
2019-05-13T06:58:32.507Z,101506.65
2019-05-13T07:01:03.621Z,101519.28
2019-05-13T07:03:32.754Z,101506.54
2019-05-13T07:06:02.960Z,101514.69
2019-05-13T07:08:32.217Z,101515.37
2019-05-13T07:11:17.134Z,101503.42
2019-05-13T07:13:32.464Z,101512.98
2019-05-13T07:16:01.665Z,101516.45
2019-05-13T07:18:32.316Z,101500.66
2019-05-13T07:21:02.350Z,101501.03
2019-05-13T07:23:32.015Z,101503.40
2019-05-13T07:26:01.955Z,101503.49
2019-05-13T07:28:32.257Z,101503.98
2019-05-13T07:31:02.270Z,101506.20
2019-05-13T07:33:32.176Z,101504.25
2019-05-13T07:36:03.089Z,101512.44
2019-05-13T07:38:33.218Z,101501.15
2019-05-13T07:41:06.193Z,101513.66
2019-05-13T07:43:36.057Z,101515.70
2019-05-13T07:46:05.476Z,101511.55
2019-05-13T07:48:34.831Z,101506.59
2019-05-13T07:51:04.894Z,101503.76
2019-05-13T07:53:34.230Z,101509.16
2019-05-13T07:56:03.465Z,101507.06
2019-05-13T07:58:37.232Z,101515.05
2019-05-13T08:01:03.810Z,101506.97
2019-05-13T08:03:33.089Z,101506.62
2019-05-13T08:06:02.404Z,101507.59
2019-05-13T08:08:32.463Z,101502.94
2019-05-13T08:11:01.791Z,101501.73
2019-05-13T08:13:31.573Z,101494.60
2019-05-13T08:16:01.950Z,101490.86
2019-05-13T08:18:32.040Z,101497.70
2019-05-13T08:21:02.287Z,101499.64
2019-05-13T08:23:32.360Z,101503.58
2019-05-13T08:26:02.339Z,101509.80
2019-05-13T08:28:32.438Z,101497.14
2019-05-13T08:31:02.335Z,101494.78
2019-05-13T08:33:34.412Z,101485.30
2019-05-13T08:36:03.581Z,101495.27
2019-05-13T08:38:33.093Z,101494.23
2019-05-13T08:41:02.552Z,101493.61
2019-05-13T08:43:31.965Z,101495.34
2019-05-13T08:46:02.086Z,101484.77
2019-05-13T08:48:32.384Z,101493.63
2019-05-13T08:51:03.031Z,101486.14
2019-05-13T08:53:32.906Z,101479.28
2019-05-13T08:56:02.080Z,101479.48
2019-05-13T08:58:32.036Z,101476.53
2019-05-13T09:01:02.460Z,101484.27
2019-05-13T09:03:32.593Z,101488.09
2019-05-13T09:06:03.058Z,101486.48
2019-05-13T09:08:32.327Z,101482.22
2019-05-13T09:11:01.873Z,101480.28
2019-05-13T09:13:33.048Z,101479.78
2019-05-13T09:16:02.721Z,101477.50
2019-05-13T09:18:32.326Z,101479.94
2019-05-13T09:21:02.559Z,101479.83
2019-05-13T09:23:32.037Z,101469.61
2019-05-13T09:26:02.603Z,101465.33
2019-05-13T09:28:32.598Z,101469.00
2019-05-13T09:31:02.327Z,101476.08
2019-05-13T09:33:32.624Z,101474.87
2019-05-13T09:36:02.494Z,101460.93
2019-05-13T09:38:32.639Z,101466.22
2019-05-13T09:41:02.290Z,101470.98
2019-05-13T09:43:31.854Z,101467.27
2019-05-13T09:46:01.804Z,101456.41
2019-05-13T09:48:31.919Z,101459.34
2019-05-13T09:51:02.513Z,101453.69
2019-05-13T09:53:32.705Z,101467.92
2019-05-13T09:56:02.581Z,101462.88
2019-05-13T09:58:33.019Z,101462.69
2019-05-13T10:01:02.670Z,101454.55
2019-05-13T10:03:33.038Z,101449.73
2019-05-13T10:06:02.814Z,101453.88
2019-05-13T10:08:32.773Z,101462.02
2019-05-13T10:11:02.116Z,101457.16
2019-05-13T10:13:31.823Z,101465.73
2019-05-13T10:16:01.264Z,101463.05
2019-05-13T10:18:32.718Z,101471.23
2019-05-13T10:21:02.831Z,101451.30
2019-05-13T10:23:33.337Z,101450.06
2019-05-13T10:26:06.158Z,101447.25
2019-05-13T10:28:35.591Z,101444.84
2019-05-13T10:31:05.387Z,101443.86
2019-05-13T10:33:34.643Z,101442.93
2019-05-13T10:36:04.114Z,101441.48
2019-05-13T10:38:33.864Z,101441.56
2019-05-13T10:41:03.719Z,101439.94
2019-05-13T10:43:40.060Z,101439.98
2019-05-13T10:46:05.913Z,101429.87
2019-05-13T10:48:35.189Z,101430.28
2019-05-13T10:51:04.374Z,101425.78
2019-05-13T10:53:33.524Z,101429.38
2019-05-13T10:56:03.532Z,101443.02
2019-05-13T10:58:32.831Z,101427.96
2019-05-13T11:01:03.080Z,101435.88
2019-05-13T11:03:33.133Z,101424.61
2019-05-13T11:06:02.548Z,101435.62
2019-05-13T11:08:33.102Z,101434.20
2019-05-13T11:11:03.216Z,101437.59
2019-05-13T11:13:50.688Z,101425.19
2019-05-13T11:16:03.711Z,101426.66
2019-05-13T11:18:33.397Z,101420.96
2019-05-13T11:21:03.361Z,101407.35
2019-05-13T11:23:35.020Z,101424.42
2019-05-13T11:26:08.886Z,101412.64
2019-05-13T11:28:39.058Z,101422.10
2019-05-13T11:31:10.004Z,101420.09
2019-05-13T11:33:42.310Z,101410.45
2019-05-13T11:36:12.921Z,101401.02
2019-05-13T11:38:43.319Z,101402.97
2019-05-13T11:41:12.709Z,101403.80
2019-05-13T11:43:42.620Z,101391.39
2019-05-13T11:46:11.815Z,101405.35
2019-05-13T11:48:42.553Z,101403.28
2019-05-13T11:51:13.041Z,101394.67
2019-05-13T11:53:42.624Z,101385.72
2019-05-13T11:56:14.424Z,101397.59
2019-05-13T11:58:43.712Z,101394.50
2019-05-13T12:01:13.066Z,101381.71
2019-05-13T12:03:43.399Z,101371.97
2019-05-13T12:06:13.178Z,101371.72
2019-05-13T12:08:49.981Z,101381.56
2019-05-13T12:11:13.909Z,101375.23
2019-05-13T12:13:43.458Z,101377.76
2019-05-13T12:16:13.040Z,101386.23
2019-05-13T12:18:43.867Z,101385.02
2019-05-13T12:21:13.140Z,101376.17
2019-05-13T12:23:42.927Z,101375.75
2019-05-13T12:26:13.058Z,101367.88
2019-05-13T12:28:42.475Z,101356.42
2019-05-13T12:31:12.308Z,101354.77
2019-05-13T12:33:44.074Z,101366.58
2019-05-13T12:36:17.868Z,101365.49
2019-05-13T12:38:44.248Z,101364.41
2019-05-13T12:41:13.782Z,101350.78
2019-05-13T12:43:43.107Z,101351.74
2019-05-13T12:46:12.668Z,101345.63
2019-05-13T12:48:41.993Z,101340.25
2019-05-13T12:51:13.311Z,101339.51
2019-05-13T12:53:43.478Z,101337.25
2019-05-13T12:56:13.116Z,101343.86
2019-05-13T12:58:42.327Z,101344.30
2019-05-13T13:01:12.780Z,101355.69
2019-05-13T13:03:42.146Z,101332.92
2019-05-13T13:06:27.297Z,101328.27
2019-05-13T13:08:48.531Z,101326.48
2019-05-13T13:11:13.673Z,101335.95
2019-05-13T13:13:57.974Z,101334.39
2019-05-13T13:16:14.003Z,101332.72
2019-05-13T13:18:43.788Z,101311.48
2019-05-13T13:21:14.602Z,101304.34
2019-05-13T13:23:43.991Z,101307.18
2019-05-13T13:26:15.958Z,101309.61
2019-05-13T13:28:44.116Z,101319.73
2019-05-13T13:31:13.411Z,101312.77
2019-05-13T13:33:44.491Z,101306.55
2019-05-13T13:36:15.745Z,101310.82
2019-05-13T13:38:44.674Z,101295.13
2019-05-13T13:41:22.304Z,101309.44
2019-05-13T13:43:44.990Z,101296.00
2019-05-13T13:46:32.764Z,101295.09
2019-05-13T13:48:45.182Z,101292.26
2019-05-13T13:51:14.738Z,101298.17
2019-05-13T13:53:44.871Z,101298.47
2019-05-13T13:56:14.987Z,101289.26
2019-05-13T13:58:44.450Z,101284.48
2019-05-13T14:01:19.913Z,101283.37
2019-05-13T14:03:45.946Z,101282.95
2019-05-13T14:07:09.224Z,101281.48
2019-05-13T14:08:46.721Z,101283.41
2019-05-13T14:11:15.991Z,101289.45
2019-05-13T14:13:45.156Z,101283.77
2019-05-13T14:16:28.692Z,101275.30
2019-05-13T14:18:45.550Z,101274.94
2019-05-13T14:21:14.721Z,101275.55
2019-05-13T14:23:44.102Z,101260.65
2019-05-13T14:26:13.866Z,101260.05
2019-05-13T14:28:43.585Z,101267.31
2019-05-13T14:31:13.468Z,101252.64
2019-05-13T14:33:42.855Z,101246.83
2019-05-13T14:36:12.445Z,101247.80
2019-05-13T14:38:42.247Z,101249.35
2019-05-13T14:41:12.460Z,101253.94
2019-05-13T14:43:44.521Z,101248.64
2019-05-13T14:46:13.971Z,101246.23
2019-05-13T14:48:43.442Z,101244.14
2019-05-13T14:51:13.162Z,101235.92
2019-05-13T14:53:42.637Z,101233.27
2019-05-13T14:56:14.429Z,101233.67
2019-05-13T14:58:43.873Z,101234.72
2019-05-13T15:01:19.881Z,101234.75
2019-05-13T15:03:44.720Z,101230.45
2019-05-13T15:06:13.960Z,101227.17
2019-05-13T15:08:43.645Z,101229.27
2019-05-13T15:11:12.883Z,101227.82
2019-05-13T15:13:42.654Z,101227.11
2019-05-13T15:16:12.179Z,101220.41
2019-05-13T15:18:41.792Z,101224.09
2019-05-13T15:21:12.110Z,101225.73
2019-05-13T15:23:42.246Z,101225.73
2019-05-13T15:26:11.861Z,101217.70
2019-05-13T15:28:42.168Z,101225.12
2019-05-13T15:31:11.697Z,101218.12
2019-05-13T15:33:41.750Z,101215.68
2019-05-13T15:36:12.022Z,101223.11
2019-05-13T15:38:41.613Z,101221.34
2019-05-13T15:41:14.942Z,101221.83
2019-05-13T15:43:42.525Z,101216.78
2019-05-13T15:46:12.626Z,101216.03
2019-05-13T15:48:42.249Z,101211.67
2019-05-13T15:51:11.483Z,101211.84
2019-05-13T15:53:43.546Z,101214.30
2019-05-13T15:56:12.545Z,101213.95
2019-05-13T15:58:44.648Z,101208.59
2019-05-13T16:01:17.059Z,101202.09
2019-05-13T16:03:46.484Z,101205.35
2019-05-13T16:06:15.772Z,101200.52
2019-05-13T16:08:44.992Z,101214.30
2019-05-13T16:11:14.311Z,101209.53
2019-05-13T16:13:43.760Z,101208.24
2019-05-13T16:16:13.133Z,101214.72
2019-05-13T16:18:42.392Z,101215.52
2019-05-13T16:21:12.192Z,101195.35
2019-05-13T16:23:42.826Z,101203.75
2019-05-13T16:26:12.350Z,101200.44
2019-05-13T16:28:42.074Z,101198.63
2019-05-13T16:31:11.929Z,101198.17
2019-05-13T16:33:41.796Z,101204.62
2019-05-13T16:36:12.680Z,101196.05
2019-05-13T16:38:42.504Z,101198.44
2019-05-13T16:41:12.864Z,101198.72
2019-05-13T16:43:42.815Z,101195.08
2019-05-13T16:46:12.394Z,101190.66
2019-05-13T16:48:41.816Z,101187.73
2019-05-13T16:51:12.446Z,101187.93
2019-05-13T16:53:42.540Z,101192.42
2019-05-13T16:56:25.603Z,101199.39
2019-05-13T16:58:42.868Z,101200.73
2019-05-13T17:01:12.123Z,101195.97
2019-05-13T17:03:41.729Z,101202.66
2019-05-13T17:06:12.702Z,101206.70
2019-05-13T17:08:42.737Z,101199.80
2019-05-13T17:11:12.101Z,101198.87
2019-05-13T17:13:42.395Z,101194.40
2019-05-13T17:16:11.741Z,101198.74
2019-05-13T17:18:41.654Z,101197.53
2019-05-13T17:21:11.198Z,101196.14
2019-05-13T17:23:41.841Z,101200.70
2019-05-13T17:26:32.668Z,101191.98
2019-05-13T17:29:02.240Z,101192.19
2019-05-13T17:31:32.561Z,101199.41
2019-05-13T17:34:02.137Z,101200.96
2019-05-13T17:36:32.479Z,101201.97
2019-05-13T17:39:02.039Z,101205.10
2019-05-13T17:41:32.176Z,101215.26
2019-05-13T17:44:21.878Z,101211.86
2019-05-13T17:46:52.045Z,101217.76
2019-05-13T17:49:22.145Z,101214.05
2019-05-13T17:51:51.771Z,101220.09
2019-05-13T17:54:22.192Z,101218.30
2019-05-13T17:56:51.541Z,101219.95
2019-05-13T17:59:21.784Z,101224.45
2019-05-13T18:01:51.656Z,101222.88
2019-05-13T18:04:22.594Z,101226.52
2019-05-13T18:06:52.408Z,101230.50
2019-05-13T18:09:22.363Z,101227.63
2019-05-13T18:11:52.869Z,101229.36
2019-05-13T18:14:22.245Z,101236.84
2019-05-13T18:16:51.489Z,101227.48
2019-05-13T18:19:22.129Z,101230.04
2019-05-13T18:21:51.754Z,101231.34
2019-05-13T18:24:21.348Z,101235.14
2019-05-13T18:26:52.137Z,101233.20
2019-05-13T18:29:22.724Z,101228.86
2019-05-13T18:31:52.534Z,101243.83
2019-05-13T18:34:21.827Z,101241.55
2019-05-13T18:36:51.640Z,101239.62
2019-05-13T18:39:21.603Z,101239.75
2019-05-13T18:41:51.099Z,101237.17
2019-05-13T18:44:20.677Z,101236.08
2019-05-13T18:46:52.316Z,101236.08
2019-05-13T18:49:21.162Z,101237.34
2019-05-13T18:51:50.450Z,101242.92
2019-05-13T18:54:19.744Z,101245.47
2019-05-13T18:56:48.932Z,101243.52
2019-05-13T18:59:18.242Z,101245.47
2019-05-13T19:01:47.456Z,101250.25
2019-05-13T19:04:16.944Z,101249.70
2019-05-13T19:06:46.192Z,101249.52
2019-05-13T19:09:15.404Z,101250.73
2019-05-13T19:11:44.605Z,101254.02
2019-05-13T19:14:13.925Z,101253.38
2019-05-13T19:16:43.234Z,101259.27
2019-05-13T19:19:15.918Z,101264.30
2019-05-13T19:21:43.565Z,101269.02
2019-05-13T19:24:13.564Z,101266.47
2019-05-13T19:26:46.230Z,101264.61
2019-05-13T19:29:15.639Z,101275.61
2019-05-13T19:31:45.033Z,101274.73
2019-05-13T19:34:14.373Z,101272.46
2019-05-13T19:36:48.480Z,101277.80
2019-05-13T19:39:17.884Z,101279.88
2019-05-13T19:41:47.188Z,101276.36
2019-05-13T19:44:16.440Z,101277.31
2019-05-13T19:46:46.005Z,101281.11
2019-05-13T19:49:28.821Z,101285.50
2019-05-13T19:51:46.215Z,101276.63
2019-05-13T19:54:15.592Z,101279.66
2019-05-13T19:56:44.930Z,101277.89
2019-05-13T19:59:14.205Z,101281.17
2019-05-13T20:01:43.630Z,101279.45
2019-05-13T20:04:12.868Z,101275.25
2019-05-13T20:06:42.103Z,101283.36
2019-05-13T20:09:11.238Z,101281.97
2019-05-13T20:11:42.014Z,101280.41
2019-05-13T20:14:12.160Z,101279.12
2019-05-13T20:16:41.841Z,101282.99
2019-05-13T20:19:11.834Z,101283.27
2019-05-13T20:21:42.563Z,101279.97
2019-05-13T20:24:12.052Z,101280.23
2019-05-13T20:26:41.533Z,101284.73
2019-05-13T20:29:12.323Z,101288.53
2019-05-13T20:31:41.681Z,101286.98
2019-05-13T20:34:11.803Z,101288.44
2019-05-13T20:36:42.246Z,101293.95
2019-05-13T20:39:11.724Z,101289.89
2019-05-13T20:41:41.442Z,101288.28
2019-05-13T20:44:10.723Z,101282.61
2019-05-13T20:46:42.179Z,101282.86
2019-05-13T20:49:12.041Z,101284.61
2019-05-13T20:51:41.388Z,101280.72
2019-05-13T20:54:11.405Z,101282.10
2019-05-13T20:56:42.260Z,101281.36
2019-05-13T20:59:11.567Z,101285.03
2019-05-13T21:01:41.883Z,101275.54
2019-05-13T21:04:12.333Z,101282.61
2019-05-13T21:06:42.193Z,101277.65
2019-05-13T21:09:16.698Z,101282.23
2019-05-13T21:11:42.591Z,101282.45
2019-05-13T21:14:11.925Z,101279.83
2019-05-13T21:16:41.712Z,101279.56
2019-05-13T21:19:12.400Z,101278.63
2019-05-13T21:21:41.777Z,101272.91
2019-05-13T21:24:11.046Z,101277.28
2019-05-13T21:26:42.003Z,101276.88
2019-05-13T21:29:11.225Z,101269.38
2019-05-13T21:31:41.395Z,101267.95
2019-05-13T21:34:11.895Z,101258.55
2019-05-13T21:36:41.419Z,101259.64
2019-05-13T21:39:12.464Z,101266.25
2019-05-13T21:41:41.544Z,101264.55
2019-05-13T21:44:12.006Z,101265.26
2019-05-13T21:46:41.281Z,101269.27
2019-05-13T21:49:11.827Z,101274.77
2019-05-13T21:51:41.873Z,101274.94
2019-05-13T21:54:11.798Z,101278.50
2019-05-13T21:56:42.676Z,101273.81
2019-05-13T21:59:12.207Z,101272.56
2019-05-13T22:01:42.232Z,101273.63
2019-05-13T22:04:12.362Z,101267.81
2019-05-13T22:06:41.759Z,101267.09
2019-05-13T22:09:11.818Z,101261.98
2019-05-13T22:11:41.992Z,101264.17
2019-05-13T22:14:11.565Z,101267.98
2019-05-13T22:16:41.262Z,101267.61
2019-05-13T22:19:12.200Z,101262.03
2019-05-13T22:21:42.372Z,101268.11
2019-05-13T22:24:11.880Z,101263.00
2019-05-13T22:26:41.922Z,101261.70
2019-05-13T22:29:11.379Z,101260.91
2019-05-13T22:31:42.001Z,101257.47
2019-05-13T22:34:12.155Z,101252.83
2019-05-13T22:36:41.473Z,101257.23
2019-05-13T22:39:11.530Z,101242.05
2019-05-13T22:41:42.075Z,101257.36
2019-05-13T22:44:11.853Z,101254.41
2019-05-13T22:46:41.481Z,101250.33
2019-05-13T22:49:11.672Z,101257.81
2019-05-13T22:51:41.353Z,101255.39
2019-05-13T22:54:11.854Z,101254.51
2019-05-13T22:56:41.500Z,101255.16
2019-05-13T22:59:12.315Z,101252.25
2019-05-13T23:01:42.007Z,101254.83
2019-05-13T23:04:11.577Z,101252.53
2019-05-13T23:06:40.875Z,101259.32
2019-05-13T23:09:12.324Z,101250.18
2019-05-13T23:11:41.788Z,101245.94
2019-05-13T23:14:13.425Z,101247.91
2019-05-13T23:16:42.199Z,101244.92
2019-05-13T23:19:11.630Z,101245.66
2019-05-13T23:21:41.833Z,101241.73
2019-05-13T23:24:11.403Z,101240.03
2019-05-13T23:26:42.174Z,101235.38
2019-05-13T23:29:11.543Z,101235.95
2019-05-13T23:31:41.496Z,101233.12
2019-05-13T23:34:12.088Z,101234.08
2019-05-13T23:36:42.325Z,101234.95
2019-05-13T23:39:11.834Z,101232.31
2019-05-13T23:41:41.708Z,101226.45
2019-05-13T23:44:23.669Z,101225.72
2019-05-13T23:46:42.150Z,101224.58
2019-05-13T23:49:11.868Z,101223.02
2019-05-13T23:51:41.468Z,101218.98
2019-05-13T23:54:12.275Z,101218.98
2019-05-13T23:56:41.804Z,101219.09
2019-05-13T23:59:11.457Z,101217.47
